createdAt,value
2017-02-11T00:00:06.769Z,929.77
2017-02-11T00:00:34.954Z,929.82
2017-02-11T00:01:02.948Z,929.84
2017-02-11T00:01:31.168Z,929.8
2017-02-11T00:01:59.363Z,929.83
2017-02-11T00:02:27.577Z,929.85
2017-02-11T00:02:55.605Z,929.88
2017-02-11T00:03:23.695Z,929.85
2017-02-11T00:03:51.758Z,929.76
2017-02-11T00:04:19.736Z,929.82
2017-02-11T00:04:47.876Z,929.85
2017-02-11T00:05:15.982Z,929.85
2017-02-11T00:05:44.107Z,929.88
2017-02-11T00:06:12.233Z,929.88
2017-02-11T00:06:40.343Z,929.87
2017-02-11T00:07:08.489Z,929.87
2017-02-11T00:07:36.534Z,929.89
2017-02-11T00:08:04.766Z,929.9
2017-02-11T00:08:33.011Z,929.88
2017-02-11T00:09:01.004Z,929.86
2017-02-11T00:09:29.035Z,929.86
2017-02-11T00:09:57.237Z,929.91
2017-02-11T00:10:25.128Z,929.87
2017-02-11T00:10:53.246Z,929.89
2017-02-11T00:11:21.198Z,929.9
2017-02-11T00:11:48.991Z,929.89
2017-02-11T00:12:16.977Z,929.91
2017-02-11T00:12:45.181Z,929.87
2017-02-11T00:13:13.255Z,929.96
2017-02-11T00:13:41.480Z,929.95
2017-02-11T00:14:09.637Z,930.04
2017-02-11T00:14:37.867Z,929.93
2017-02-11T00:15:06.061Z,929.98
2017-02-11T00:15:34.237Z,930
2017-02-11T00:16:02.390Z,930.09
2017-02-11T00:16:30.600Z,929.98
2017-02-11T00:16:58.814Z,929.98
2017-02-11T00:17:27.006Z,930.01
2017-02-11T00:17:55.233Z,930.02
2017-02-11T00:18:23.360Z,929.97
2017-02-11T00:18:51.423Z,930.05
2017-02-11T00:19:19.689Z,929.98
2017-02-11T00:19:47.885Z,929.95
2017-02-11T00:20:16.043Z,929.96
2017-02-11T00:20:44.241Z,929.92
2017-02-11T00:21:12.253Z,929.97
2017-02-11T00:21:40.415Z,929.99
2017-02-11T00:22:08.442Z,929.99
2017-02-11T00:22:36.554Z,929.99
2017-02-11T00:23:04.774Z,930.04
2017-02-11T00:23:32.862Z,930.02
2017-02-11T00:24:01.063Z,930.03
2017-02-11T00:24:29.111Z,930.04
2017-02-11T00:24:57.126Z,930.06
2017-02-11T00:25:25.194Z,930.1
2017-02-11T00:25:53.374Z,930.08
2017-02-11T00:26:21.425Z,930.12
2017-02-11T00:26:49.565Z,930.14
2017-02-11T00:27:17.716Z,930.12
2017-02-11T00:27:45.704Z,930.16
2017-02-11T00:28:13.842Z,930.11
2017-02-11T00:28:41.973Z,930.1
2017-02-11T00:29:10.174Z,930.12
2017-02-11T00:29:38.380Z,930.07
2017-02-11T00:30:06.510Z,930.06
2017-02-11T00:30:34.632Z,930.07
2017-02-11T00:31:02.826Z,930.08
2017-02-11T00:31:30.838Z,930.08
2017-02-11T00:31:58.981Z,930.12
2017-02-11T00:32:27.188Z,930.05
2017-02-11T00:32:55.492Z,930.13
2017-02-11T00:33:23.430Z,930.15
2017-02-11T00:33:51.473Z,930.12
2017-02-11T00:34:19.554Z,930.14
2017-02-11T00:34:47.599Z,930.2
2017-02-11T00:35:15.629Z,930.15
2017-02-11T00:35:43.648Z,930.19
2017-02-11T00:36:11.749Z,930.23
2017-02-11T00:36:39.930Z,930.21
2017-02-11T00:37:08.071Z,930.17
2017-02-11T00:37:36.206Z,930.23
2017-02-11T00:38:04.481Z,930.2
2017-02-11T00:38:32.754Z,930.24
2017-02-11T00:39:00.870Z,930.24
2017-02-11T00:39:28.895Z,930.22
2017-02-11T00:39:57.041Z,930.24
2017-02-11T00:40:25.248Z,930.2
2017-02-11T00:40:53.454Z,930.18
2017-02-11T00:41:21.555Z,930.18
2017-02-11T00:41:49.654Z,930.23
2017-02-11T00:42:17.778Z,930.2
2017-02-11T00:42:46.108Z,930.19
2017-02-11T00:43:14.078Z,930.21
2017-02-11T00:43:41.982Z,930.21
2017-02-11T00:44:10.207Z,930.23
2017-02-11T00:44:38.323Z,930.26
2017-02-11T00:45:06.392Z,930.23
2017-02-11T00:45:34.412Z,930.21
2017-02-11T00:46:02.519Z,930.25
2017-02-11T00:46:30.740Z,930.23
2017-02-11T00:46:58.805Z,930.28
2017-02-11T00:47:26.981Z,930.21
2017-02-11T00:47:55.333Z,930.22
2017-02-11T00:48:23.419Z,930.2
2017-02-11T00:48:51.505Z,930.19
2017-02-11T00:49:19.585Z,930.15
2017-02-11T00:49:47.559Z,930.2
2017-02-11T00:50:15.484Z,930.16
2017-02-11T00:50:43.610Z,930.14
2017-02-11T00:51:11.632Z,930.17
2017-02-11T00:51:39.828Z,930.1
2017-02-11T00:52:07.942Z,930.07
2017-02-11T00:52:36.119Z,930.1
2017-02-11T00:53:04.239Z,930.11
2017-02-11T00:53:32.134Z,930.08
2017-02-11T00:54:00.168Z,930.12
2017-02-11T00:54:28.045Z,930.15
2017-02-11T00:54:56.273Z,930.16
2017-02-11T00:55:24.372Z,930.13
2017-02-11T00:55:52.308Z,930.08
2017-02-11T00:56:20.561Z,930.1
2017-02-11T00:56:48.750Z,930.11
2017-02-11T00:57:16.731Z,930.18
2017-02-11T00:57:44.791Z,930.15
2017-02-11T00:58:13.060Z,930.15
2017-02-11T00:58:41.111Z,930.11
2017-02-11T00:59:09.344Z,930.15
2017-02-11T00:59:37.337Z,930.18
2017-02-11T01:00:05.347Z,930.14
2017-02-11T01:00:33.429Z,930.17
2017-02-11T01:01:01.599Z,930.16
2017-02-11T01:01:29.579Z,930.14
2017-02-11T01:01:57.700Z,930.13
2017-02-11T01:02:25.884Z,930.09
2017-02-11T01:02:53.995Z,930.13
2017-02-11T01:03:22.237Z,930.13
2017-02-11T01:03:50.487Z,930.17
2017-02-11T01:04:18.506Z,930.12
2017-02-11T01:04:46.577Z,930.15
2017-02-11T01:05:14.701Z,930.17
2017-02-11T01:05:42.909Z,930.18
2017-02-11T01:06:11.045Z,930.17
2017-02-11T01:06:39.127Z,930.17
2017-02-11T01:07:07.159Z,930.12
2017-02-11T01:07:35.176Z,930.16
2017-02-11T01:08:03.223Z,930.17
2017-02-11T01:08:31.433Z,930.1
2017-02-11T01:08:59.691Z,930.17
2017-02-11T01:09:27.800Z,930.14
2017-02-11T01:09:55.903Z,930.16
2017-02-11T01:10:24.036Z,930.2
2017-02-11T01:10:52.218Z,930.18
2017-02-11T01:11:20.335Z,930.19
2017-02-11T01:11:48.346Z,930.19
2017-02-11T01:12:16.591Z,930.19
2017-02-11T01:12:44.685Z,930.16
2017-02-11T01:13:12.866Z,930.2
2017-02-11T01:13:41.065Z,930.22
2017-02-11T01:14:09.064Z,930.2
2017-02-11T01:14:37.044Z,930.24
2017-02-11T01:15:05.173Z,930.14
2017-02-11T01:15:33.297Z,930.21
2017-02-11T01:16:01.463Z,930.19
2017-02-11T01:16:29.534Z,930.21
2017-02-11T01:16:57.618Z,930.27
2017-02-11T01:17:25.695Z,930.23
2017-02-11T01:17:53.897Z,930.28
2017-02-11T01:18:22.146Z,930.24
2017-02-11T01:18:50.275Z,930.21
2017-02-11T01:19:18.276Z,930.26
2017-02-11T01:19:46.255Z,930.28
2017-02-11T01:20:14.355Z,930.27
2017-02-11T01:20:42.563Z,930.27
2017-02-11T01:21:10.716Z,930.29
2017-02-11T01:21:38.826Z,930.27
2017-02-11T01:22:06.928Z,930.28
2017-02-11T01:22:35.028Z,930.26
2017-02-11T01:23:03.270Z,930.2
2017-02-11T01:23:31.614Z,930.23
2017-02-11T01:23:59.868Z,930.2
2017-02-11T01:24:27.814Z,930.21
2017-02-11T01:24:55.993Z,930.22
2017-02-11T01:25:24.095Z,930.27
2017-02-11T01:25:52.262Z,930.25
2017-02-11T01:26:20.456Z,930.21
2017-02-11T01:26:48.690Z,930.2
2017-02-11T01:27:16.865Z,930.26
2017-02-11T01:27:45.081Z,930.18
2017-02-11T01:28:13.131Z,930.28
2017-02-11T01:28:41.158Z,930.3
2017-02-11T01:29:09.379Z,930.23
2017-02-11T01:29:37.289Z,930.24
2017-02-11T01:30:05.291Z,930.17
2017-02-11T01:30:33.421Z,930.23
2017-02-11T01:31:01.455Z,930.22
2017-02-11T01:31:29.544Z,930.26
2017-02-11T01:31:57.628Z,930.26
2017-02-11T01:32:26.405Z,930.25
2017-02-11T01:32:54.507Z,930.28
2017-02-11T01:33:22.659Z,930.33
2017-02-11T01:33:50.865Z,930.33
2017-02-11T01:34:19.036Z,930.34
2017-02-11T01:34:47.228Z,930.38
2017-02-11T01:35:15.465Z,930.41
2017-02-11T01:35:43.527Z,930.36
2017-02-11T01:36:11.600Z,930.44
2017-02-11T01:36:39.825Z,930.43
2017-02-11T01:37:07.930Z,930.44
2017-02-11T01:37:36.136Z,930.46
2017-02-11T01:38:04.282Z,930.5
2017-02-11T01:38:32.562Z,930.48
2017-02-11T01:39:00.604Z,930.47
2017-02-11T01:39:28.691Z,930.44
2017-02-11T01:39:56.886Z,930.48
2017-02-11T01:40:24.900Z,930.45
2017-02-11T01:40:52.997Z,930.45
2017-02-11T01:41:21.104Z,930.46
2017-02-11T01:41:49.304Z,930.39
2017-02-11T01:42:17.520Z,930.41
2017-02-11T01:42:45.729Z,930.48
2017-02-11T01:43:13.739Z,930.38
2017-02-11T01:43:41.947Z,930.39
2017-02-11T01:44:10.057Z,930.39
2017-02-11T01:44:38.192Z,930.4
2017-02-11T01:45:06.204Z,930.38
2017-02-11T01:45:34.394Z,930.41
2017-02-11T01:46:02.550Z,930.46
2017-02-11T01:46:30.611Z,930.4
2017-02-11T01:46:58.684Z,930.41
2017-02-11T01:47:26.726Z,930.4
2017-02-11T01:47:54.955Z,930.46
2017-02-11T01:48:23.216Z,930.47
2017-02-11T01:48:51.315Z,930.44
2017-02-11T01:49:19.458Z,930.52
2017-02-11T01:49:47.604Z,930.5
2017-02-11T01:50:15.632Z,930.44
2017-02-11T01:50:43.857Z,930.44
2017-02-11T01:51:11.951Z,930.47
2017-02-11T01:51:40.044Z,930.5
2017-02-11T01:52:08.160Z,930.44
2017-02-11T01:52:36.238Z,930.46
2017-02-11T01:53:04.275Z,930.43
2017-02-11T01:53:32.578Z,930.47
2017-02-11T01:54:00.663Z,930.45
2017-02-11T01:54:28.710Z,930.56
2017-02-11T01:54:56.825Z,930.47
2017-02-11T01:55:24.839Z,930.44
2017-02-11T01:55:52.985Z,930.45
2017-02-11T01:56:21.076Z,930.45
2017-02-11T01:56:49.225Z,930.43
2017-02-11T01:57:17.318Z,930.48
2017-02-11T01:57:45.489Z,930.47
2017-02-11T01:58:13.731Z,930.45
2017-02-11T01:58:41.925Z,930.42
2017-02-11T01:59:09.959Z,930.41
2017-02-11T01:59:38.160Z,930.41
2017-02-11T02:00:06.223Z,930.38
2017-02-11T02:00:34.416Z,930.35
2017-02-11T02:01:02.438Z,930.4
2017-02-11T02:01:30.433Z,930.39
2017-02-11T02:01:58.431Z,930.42
2017-02-11T02:02:26.547Z,930.38
2017-02-11T02:02:54.532Z,930.37
2017-02-11T02:03:22.593Z,930.44
2017-02-11T02:03:50.900Z,930.45
2017-02-11T02:04:18.915Z,930.39
2017-02-11T02:04:47.030Z,930.43
2017-02-11T02:05:15.017Z,930.43
2017-02-11T02:05:43.214Z,930.42
2017-02-11T02:06:11.440Z,930.5
2017-02-11T02:06:39.670Z,930.45
2017-02-11T02:07:07.876Z,930.43
2017-02-11T02:07:36.089Z,930.42
2017-02-11T02:08:04.162Z,930.47
2017-02-11T02:08:32.291Z,930.46
2017-02-11T02:09:00.333Z,930.43
2017-02-11T02:09:28.353Z,930.45
2017-02-11T02:09:56.483Z,930.49
2017-02-11T02:10:24.618Z,930.44
2017-02-11T02:10:52.737Z,930.38
2017-02-11T02:11:20.806Z,930.4
2017-02-11T02:11:49.031Z,930.36
2017-02-11T02:12:16.987Z,930.41
2017-02-11T02:12:44.984Z,930.35
2017-02-11T02:13:13.106Z,930.34
2017-02-11T02:13:41.275Z,930.31
2017-02-11T02:14:09.307Z,930.38
2017-02-11T02:14:37.325Z,930.34
2017-02-11T02:15:05.533Z,930.3
2017-02-11T02:15:33.671Z,930.34
2017-02-11T02:16:01.707Z,930.3
2017-02-11T02:16:29.897Z,930.25
2017-02-11T02:16:58.022Z,930.29
2017-02-11T02:17:26.147Z,930.3
2017-02-11T02:17:54.295Z,930.29
2017-02-11T02:18:22.420Z,930.29
2017-02-11T02:18:50.598Z,930.27
2017-02-11T02:19:18.697Z,930.28
2017-02-11T02:19:46.922Z,930.24
2017-02-11T02:20:15.017Z,930.3
2017-02-11T02:20:43.035Z,930.26
2017-02-11T02:21:11.414Z,930.29
2017-02-11T02:21:39.467Z,930.28
2017-02-11T02:22:07.449Z,930.3
2017-02-11T02:22:35.561Z,930.27
2017-02-11T02:23:03.850Z,930.27
2017-02-11T02:23:31.952Z,930.26
2017-02-11T02:24:00.263Z,930.28
2017-02-11T02:24:28.337Z,930.3
2017-02-11T02:24:56.523Z,930.33
2017-02-11T02:25:24.674Z,930.29
2017-02-11T02:25:52.783Z,930.29
2017-02-11T02:26:20.802Z,930.28
2017-02-11T02:26:48.912Z,930.3
2017-02-11T02:27:17.134Z,930.28
2017-02-11T02:27:45.326Z,930.28
2017-02-11T02:28:13.524Z,930.31
2017-02-11T02:28:41.627Z,930.32
2017-02-11T02:29:09.740Z,930.23
2017-02-11T02:29:38.088Z,930.31
2017-02-11T02:30:06.002Z,930.26
2017-02-11T02:30:34.157Z,930.24
2017-02-11T02:31:02.148Z,930.23
2017-02-11T02:31:30.447Z,930.23
2017-02-11T02:31:58.581Z,930.2
2017-02-11T02:32:26.804Z,930.15
2017-02-11T02:32:54.848Z,930.14
2017-02-11T02:33:22.957Z,930.12
2017-02-11T02:33:51.078Z,930.12
2017-02-11T02:34:19.058Z,930.12
2017-02-11T02:34:47.242Z,930.17
2017-02-11T02:35:15.330Z,930.11
2017-02-11T02:35:43.524Z,930.13
2017-02-11T02:36:11.716Z,930.12
2017-02-11T02:36:39.863Z,930.13
2017-02-11T02:37:07.987Z,930.13
2017-02-11T02:37:35.909Z,930.09
2017-02-11T02:38:04.057Z,930.09
2017-02-11T02:38:32.355Z,930.09
2017-02-11T02:39:00.577Z,930.12
2017-02-11T02:39:28.718Z,930.09
2017-02-11T02:39:56.829Z,930.07
2017-02-11T02:40:24.922Z,930.06
2017-02-11T02:40:53.030Z,930.13
2017-02-11T02:41:21.035Z,930.07
2017-02-11T02:41:48.954Z,930.09
2017-02-11T02:42:17.121Z,930.05
2017-02-11T02:42:45.414Z,930.04
2017-02-11T02:43:13.525Z,930.06
2017-02-11T02:43:41.713Z,930.04
2017-02-11T02:44:09.917Z,930.09
2017-02-11T02:44:38.106Z,930.05
2017-02-11T02:45:06.196Z,930.1
2017-02-11T02:45:34.418Z,930.07
2017-02-11T02:46:02.399Z,930.06
2017-02-11T02:46:30.653Z,930.04
2017-02-11T02:46:58.865Z,930.08
2017-02-11T02:47:27.117Z,930.07
2017-02-11T02:47:55.164Z,930.1
2017-02-11T02:48:23.395Z,930.09
2017-02-11T02:48:51.486Z,930.04
2017-02-11T02:49:19.585Z,930.06
2017-02-11T02:49:48.027Z,930.05
2017-02-11T02:50:16.147Z,930.05
2017-02-11T02:50:44.348Z,930.04
2017-02-11T02:51:12.509Z,930.03
2017-02-11T02:51:40.909Z,930.05
2017-02-11T02:52:09.024Z,930.02
2017-02-11T02:52:37.111Z,930.02
2017-02-11T02:53:05.383Z,930.13
2017-02-11T02:53:33.584Z,930.02
2017-02-11T02:54:01.793Z,930.02
2017-02-11T02:54:29.912Z,930
2017-02-11T02:54:58.116Z,930.04
2017-02-11T02:55:26.285Z,930.02
2017-02-11T02:55:54.401Z,930
2017-02-11T02:56:22.516Z,930.02
2017-02-11T02:56:50.582Z,929.95
2017-02-11T02:57:18.673Z,930.02
2017-02-11T02:57:46.786Z,930.03
2017-02-11T02:58:14.936Z,930.03
2017-02-11T02:58:43.167Z,929.96
2017-02-11T02:59:11.197Z,930.01
2017-02-11T02:59:39.176Z,930.02
2017-02-11T03:00:07.280Z,930.02
2017-02-11T03:00:35.507Z,930.01
2017-02-11T03:01:03.726Z,929.99
2017-02-11T03:01:31.727Z,930.01
2017-02-11T03:01:59.973Z,930.02
2017-02-11T03:02:28.092Z,930.01
2017-02-11T03:02:56.190Z,930.02
2017-02-11T03:03:24.361Z,930
2017-02-11T03:03:52.488Z,930
2017-02-11T03:04:20.582Z,930.02
2017-02-11T03:04:48.717Z,930.02
2017-02-11T03:05:16.640Z,930.03
2017-02-11T03:05:44.691Z,930.03
2017-02-11T03:06:12.904Z,930.02
2017-02-11T03:06:41.070Z,929.98
2017-02-11T03:07:09.293Z,930.04
2017-02-11T03:07:37.532Z,929.98
2017-02-11T03:08:05.549Z,930.04
2017-02-11T03:08:33.574Z,929.98
2017-02-11T03:09:01.670Z,929.98
2017-02-11T03:09:30.098Z,930.05
2017-02-11T03:09:58.104Z,930.02
2017-02-11T03:10:26.202Z,929.97
2017-02-11T03:10:54.187Z,929.95
2017-02-11T03:11:22.350Z,929.92
2017-02-11T03:11:50.404Z,929.91
2017-02-11T03:12:18.457Z,929.91
2017-02-11T03:12:46.530Z,929.94
2017-02-11T03:13:14.657Z,929.88
2017-02-11T03:13:42.587Z,929.87
2017-02-11T03:14:10.805Z,929.9
2017-02-11T03:14:38.954Z,929.85
2017-02-11T03:15:07.207Z,929.88
2017-02-11T03:15:35.326Z,929.92
2017-02-11T03:16:03.520Z,929.9
2017-02-11T03:16:31.824Z,929.89
2017-02-11T03:16:59.925Z,929.91
2017-02-11T03:17:28.101Z,929.9
2017-02-11T03:17:56.438Z,929.91
2017-02-11T03:18:24.661Z,929.94
2017-02-11T03:18:52.807Z,929.91
2017-02-11T03:19:20.904Z,929.9
2017-02-11T03:19:49.125Z,929.95
2017-02-11T03:20:17.315Z,929.94
2017-02-11T03:20:45.399Z,929.94
2017-02-11T03:21:13.466Z,929.93
2017-02-11T03:21:41.859Z,929.93
2017-02-11T03:22:10.086Z,929.9
2017-02-11T03:22:38.048Z,929.9
2017-02-11T03:23:06.034Z,929.87
2017-02-11T03:23:34.185Z,929.89
2017-02-11T03:24:02.437Z,929.84
2017-02-11T03:24:30.583Z,929.83
2017-02-11T03:24:58.605Z,929.85
2017-02-11T03:25:26.626Z,929.87
2017-02-11T03:25:54.684Z,929.81
2017-02-11T03:26:22.544Z,929.81
2017-02-11T03:26:50.785Z,929.78
2017-02-11T03:27:18.985Z,929.81
2017-02-11T03:27:47.129Z,929.82
2017-02-11T03:28:15.073Z,929.79
2017-02-11T03:28:43.152Z,929.77
2017-02-11T03:29:10.994Z,929.76
2017-02-11T03:29:39.375Z,929.77
2017-02-11T03:30:07.526Z,929.77
2017-02-11T03:30:35.524Z,929.74
2017-02-11T03:31:03.778Z,929.78
2017-02-11T03:31:31.787Z,929.76
2017-02-11T03:31:59.956Z,929.75
2017-02-11T03:32:28.153Z,929.75
2017-02-11T03:32:56.291Z,929.7
2017-02-11T03:33:24.294Z,929.74
2017-02-11T03:33:52.404Z,929.75
2017-02-11T03:34:20.712Z,929.72
2017-02-11T03:34:48.932Z,929.76
2017-02-11T03:35:16.979Z,929.74
2017-02-11T03:35:45.058Z,929.71
2017-02-11T03:36:13.247Z,929.72
2017-02-11T03:36:41.249Z,929.71
2017-02-11T03:37:09.488Z,929.71
2017-02-11T03:37:37.708Z,929.69
2017-02-11T03:38:06.016Z,929.69
2017-02-11T03:38:34.223Z,929.7
2017-02-11T03:39:02.285Z,929.66
2017-02-11T03:39:30.769Z,929.68
2017-02-11T03:39:58.789Z,929.64
2017-02-11T03:40:26.898Z,929.66
2017-02-11T03:40:55.005Z,929.61
2017-02-11T03:41:23.027Z,929.62
2017-02-11T03:41:51.139Z,929.65
2017-02-11T03:42:19.247Z,929.6
2017-02-11T03:42:47.435Z,929.6
2017-02-11T03:43:15.541Z,929.6
2017-02-11T03:43:43.534Z,929.62
2017-02-11T03:44:11.781Z,929.58
2017-02-11T03:44:40.093Z,929.56
2017-02-11T03:45:08.194Z,929.55
2017-02-11T03:45:36.215Z,929.56
2017-02-11T03:46:04.340Z,929.56
2017-02-11T03:46:32.453Z,929.57
2017-02-11T03:47:00.589Z,929.55
2017-02-11T03:47:28.770Z,929.57
2017-02-11T03:47:56.956Z,929.58
2017-02-11T03:48:25.074Z,929.55
2017-02-11T03:48:53.200Z,929.51
2017-02-11T03:49:21.293Z,929.51
2017-02-11T03:49:49.483Z,929.52
2017-02-11T03:50:17.651Z,929.55
2017-02-11T03:50:45.683Z,929.55
2017-02-11T03:51:13.859Z,929.54
2017-02-11T03:51:41.785Z,929.52
2017-02-11T03:52:09.816Z,929.5
2017-02-11T03:52:37.918Z,929.49
2017-02-11T03:53:06.231Z,929.5
2017-02-11T03:53:34.238Z,929.51
2017-02-11T03:54:02.428Z,929.54
2017-02-11T03:54:30.590Z,929.54
2017-02-11T03:54:58.857Z,929.54
2017-02-11T03:55:26.943Z,929.52
2017-02-11T03:55:55.174Z,929.53
2017-02-11T03:56:23.282Z,929.55
2017-02-11T03:56:51.447Z,929.49
2017-02-11T03:57:19.464Z,929.53
2017-02-11T03:57:47.493Z,929.5
2017-02-11T03:58:15.816Z,929.49
2017-02-11T03:58:44.049Z,929.47
2017-02-11T03:59:12.092Z,929.47
2017-02-11T03:59:40.328Z,929.46
2017-02-11T04:00:08.400Z,929.46
2017-02-11T04:00:36.422Z,929.42
2017-02-11T04:01:04.623Z,929.45
2017-02-11T04:01:32.840Z,929.44
2017-02-11T04:02:00.926Z,929.38
2017-02-11T04:02:29.086Z,929.4
2017-02-11T04:02:57.205Z,929.44
2017-02-11T04:03:25.375Z,929.4
2017-02-11T04:03:53.630Z,929.36
2017-02-11T04:04:21.751Z,929.39
2017-02-11T04:04:49.861Z,929.37
2017-02-11T04:05:18.092Z,929.34
2017-02-11T04:05:46.186Z,929.34
2017-02-11T04:06:14.402Z,929.31
2017-02-11T04:06:42.499Z,929.34
2017-02-11T04:07:10.466Z,929.32
2017-02-11T04:07:38.550Z,929.31
2017-02-11T04:08:06.696Z,929.28
2017-02-11T04:08:34.826Z,929.32
2017-02-11T04:09:02.795Z,929.29
2017-02-11T04:09:30.976Z,929.26
2017-02-11T04:09:58.964Z,929.26
2017-02-11T04:10:27.206Z,929.23
2017-02-11T04:10:55.646Z,929.24
2017-02-11T04:11:23.695Z,929.26
2017-02-11T04:11:51.737Z,929.25
2017-02-11T04:12:19.748Z,929.23
2017-02-11T04:12:47.918Z,929.23
2017-02-11T04:13:15.999Z,929.23
2017-02-11T04:13:44.120Z,929.23
2017-02-11T04:14:12.119Z,929.25
2017-02-11T04:14:39.951Z,929.19
2017-02-11T04:15:08.258Z,929.21
2017-02-11T04:15:36.366Z,929.18
2017-02-11T04:16:04.509Z,929.16
2017-02-11T04:16:32.624Z,929.18
2017-02-11T04:17:00.830Z,929.13
2017-02-11T04:17:29.019Z,929.15
2017-02-11T04:17:57.130Z,929.15
2017-02-11T04:18:25.441Z,929.08
2017-02-11T04:18:53.682Z,929.03
2017-02-11T04:19:21.787Z,929.07
2017-02-11T04:19:50.020Z,929.08
2017-02-11T04:20:18.069Z,929.05
2017-02-11T04:20:46.009Z,929.05
2017-02-11T04:21:14.167Z,929.06
2017-02-11T04:21:42.214Z,929.03
2017-02-11T04:22:10.341Z,929.06
2017-02-11T04:22:38.485Z,929.05
2017-02-11T04:23:06.586Z,929.04
2017-02-11T04:23:34.649Z,929.08
2017-02-11T04:24:02.852Z,929.07
2017-02-11T04:24:30.943Z,929.05
2017-02-11T04:24:59.168Z,929.07
2017-02-11T04:25:27.174Z,929.06
2017-02-11T04:25:55.423Z,929.05
2017-02-11T04:26:23.636Z,929.03
2017-02-11T04:26:51.701Z,928.97
2017-02-11T04:27:19.812Z,929.01
2017-02-11T04:27:47.919Z,928.98
2017-02-11T04:28:15.871Z,928.98
2017-02-11T04:28:43.996Z,928.94
2017-02-11T04:29:12.159Z,928.91
2017-02-11T04:29:40.069Z,928.91
2017-02-11T04:30:08.285Z,928.87
2017-02-11T04:30:36.481Z,928.88
2017-02-11T04:31:04.497Z,928.89
2017-02-11T04:31:32.359Z,928.9
2017-02-11T04:32:00.605Z,928.82
2017-02-11T04:32:28.817Z,928.88
2017-02-11T04:32:56.922Z,928.82
2017-02-11T04:33:24.983Z,928.81
2017-02-11T04:33:53.218Z,928.82
2017-02-11T04:34:21.336Z,928.77
2017-02-11T04:34:49.345Z,928.77
2017-02-11T04:35:17.571Z,928.77
2017-02-11T04:35:45.672Z,928.75
2017-02-11T04:36:13.779Z,928.8
2017-02-11T04:36:41.918Z,928.79
2017-02-11T04:37:10.036Z,928.79
2017-02-11T04:37:37.847Z,928.8
2017-02-11T04:38:06.041Z,928.73
2017-02-11T04:38:34.272Z,928.73
2017-02-11T04:39:02.558Z,928.73
2017-02-11T04:39:30.780Z,928.71
2017-02-11T04:39:58.941Z,928.74
2017-02-11T04:40:27.256Z,928.7
2017-02-11T04:40:55.350Z,928.71
2017-02-11T04:41:23.332Z,928.67
2017-02-11T04:41:51.552Z,928.68
2017-02-11T04:42:19.589Z,928.69
2017-02-11T04:42:47.837Z,928.7
2017-02-11T04:43:15.931Z,928.66
2017-02-11T04:43:43.983Z,928.7
2017-02-11T04:44:12.186Z,928.69
2017-02-11T04:44:40.158Z,928.67
2017-02-11T04:45:08.404Z,928.63
2017-02-11T04:45:36.531Z,928.62
2017-02-11T04:46:04.498Z,928.59
2017-02-11T04:46:32.639Z,928.57
2017-02-11T04:47:00.879Z,928.57
2017-02-11T04:47:28.973Z,928.55
2017-02-11T04:47:57.177Z,928.54
2017-02-11T04:48:25.379Z,928.55
2017-02-11T04:48:53.372Z,928.54
2017-02-11T04:49:21.521Z,928.54
2017-02-11T04:49:49.787Z,928.54
2017-02-11T04:50:18.179Z,928.53
2017-02-11T04:50:46.256Z,928.5
2017-02-11T04:51:14.270Z,928.55
2017-02-11T04:51:42.477Z,928.53
2017-02-11T04:52:10.577Z,928.51
2017-02-11T04:52:38.667Z,928.49
2017-02-11T04:53:06.698Z,928.52
2017-02-11T04:53:34.805Z,928.51
2017-02-11T04:54:02.795Z,928.48
2017-02-11T04:54:30.975Z,928.49
2017-02-11T04:54:59.198Z,928.49
2017-02-11T04:55:27.191Z,928.46
2017-02-11T04:55:55.334Z,928.46
2017-02-11T04:56:23.512Z,928.45
2017-02-11T04:56:51.621Z,928.44
2017-02-11T04:57:19.867Z,928.41
2017-02-11T04:57:48.038Z,928.41
2017-02-11T04:58:16.137Z,928.39
2017-02-11T04:58:44.400Z,928.37
2017-02-11T04:59:12.485Z,928.39
2017-02-11T04:59:40.624Z,928.39
2017-02-11T05:00:08.705Z,928.39
2017-02-11T05:00:36.839Z,928.38
2017-02-11T05:01:04.930Z,928.38
2017-02-11T05:01:32.949Z,928.43
2017-02-11T05:02:01.144Z,928.37
2017-02-11T05:02:29.133Z,928.36
2017-02-11T05:02:57.336Z,928.39
2017-02-11T05:03:25.439Z,928.38
2017-02-11T05:03:53.689Z,928.38
2017-02-11T05:04:21.864Z,928.39
2017-02-11T05:04:49.982Z,928.35
2017-02-11T05:05:18.278Z,928.37
2017-02-11T05:05:46.520Z,928.32
2017-02-11T05:06:14.658Z,928.3
2017-02-11T05:06:42.750Z,928.33
2017-02-11T05:07:10.824Z,928.34
2017-02-11T05:07:38.904Z,928.32
2017-02-11T05:08:07.029Z,928.27
2017-02-11T05:08:35.086Z,928.28
2017-02-11T05:09:03.053Z,928.31
2017-02-11T05:09:31.326Z,928.27
2017-02-11T05:09:59.342Z,928.3
2017-02-11T05:10:27.650Z,928.25
2017-02-11T05:10:55.857Z,928.31
2017-02-11T05:11:23.724Z,928.29
2017-02-11T05:11:51.840Z,928.33
2017-02-11T05:12:19.939Z,928.31
2017-02-11T05:12:48.067Z,928.3
2017-02-11T05:13:16.260Z,928.3
2017-02-11T05:13:44.137Z,928.26
2017-02-11T05:14:12.216Z,928.29
2017-02-11T05:14:40.437Z,928.27
2017-02-11T05:15:08.553Z,928.28
2017-02-11T05:15:36.943Z,928.28
2017-02-11T05:16:04.895Z,928.27
2017-02-11T05:16:32.877Z,928.26
2017-02-11T05:17:01.097Z,928.27
2017-02-11T05:17:29.393Z,928.27
2017-02-11T05:17:57.510Z,928.24
2017-02-11T05:18:25.624Z,928.28
2017-02-11T05:18:53.958Z,928.25
2017-02-11T05:19:22.065Z,928.24
2017-02-11T05:19:50.355Z,928.22
2017-02-11T05:20:18.425Z,928.25
2017-02-11T05:20:46.789Z,928.23
2017-02-11T05:21:14.956Z,928.26
2017-02-11T05:21:43.049Z,928.25
2017-02-11T05:22:11.166Z,928.27
2017-02-11T05:22:39.263Z,928.23
2017-02-11T05:23:07.531Z,928.26
2017-02-11T05:23:35.659Z,928.26
2017-02-11T05:24:03.925Z,928.28
2017-02-11T05:24:32.125Z,928.27
2017-02-11T05:25:00.275Z,928.26
2017-02-11T05:25:28.298Z,928.28
2017-02-11T05:25:56.666Z,928.26
2017-02-11T05:26:24.708Z,928.25
2017-02-11T05:26:52.928Z,928.27
2017-02-11T05:27:21.150Z,928.26
2017-02-11T05:27:49.276Z,928.26
2017-02-11T05:28:17.559Z,928.23
2017-02-11T05:28:45.502Z,928.25
2017-02-11T05:29:13.426Z,928.25
2017-02-11T05:29:41.464Z,928.24
2017-02-11T05:30:09.882Z,928.23
2017-02-11T05:30:37.930Z,928.23
2017-02-11T05:31:05.993Z,928.21
2017-02-11T05:31:34.003Z,928.22
2017-02-11T05:32:02.274Z,928.22
2017-02-11T05:32:30.612Z,928.18
2017-02-11T05:32:58.795Z,928.15
2017-02-11T05:33:26.834Z,928.17
2017-02-11T05:33:54.965Z,928.16
2017-02-11T05:34:22.904Z,928.18
2017-02-11T05:34:50.991Z,928.19
2017-02-11T05:35:19.228Z,928.15
2017-02-11T05:35:47.234Z,928.13
2017-02-11T05:36:15.460Z,928.15
2017-02-11T05:36:43.717Z,928.13
2017-02-11T05:37:11.965Z,928.14
2017-02-11T05:37:39.880Z,928.14
2017-02-11T05:38:07.993Z,928.11
2017-02-11T05:38:36.377Z,928.15
2017-02-11T05:39:04.461Z,928.18
2017-02-11T05:39:32.654Z,928.17
2017-02-11T05:40:00.670Z,928.15
2017-02-11T05:40:28.871Z,928.14
2017-02-11T05:40:56.955Z,928.15
2017-02-11T05:41:25.066Z,928.15
2017-02-11T05:41:53.257Z,928.11
2017-02-11T05:42:21.369Z,928.14
2017-02-11T05:42:49.573Z,928.15
2017-02-11T05:43:17.727Z,928.1
2017-02-11T05:43:46.087Z,928.12
2017-02-11T05:44:14.155Z,928.15
2017-02-11T05:44:42.145Z,928.12
2017-02-11T05:45:10.289Z,928.13
2017-02-11T05:45:38.457Z,928.17
2017-02-11T05:46:06.717Z,928.17
2017-02-11T05:46:34.840Z,928.16
2017-02-11T05:47:02.974Z,928.18
2017-02-11T05:47:31.129Z,928.2
2017-02-11T05:47:59.289Z,928.17
2017-02-11T05:48:27.293Z,928.18
2017-02-11T05:48:55.302Z,928.2
2017-02-11T05:49:23.530Z,928.21
2017-02-11T05:49:51.630Z,928.2
2017-02-11T05:50:19.747Z,928.2
2017-02-11T05:50:47.959Z,928.21
2017-02-11T05:51:16.079Z,928.23
2017-02-11T05:51:44.202Z,928.19
2017-02-11T05:52:12.316Z,928.17